createdAt,value
2023-03-10T00:01:18.396Z,21.90
2023-03-10T00:03:46.006Z,32.15
2023-03-10T00:06:17.527Z,13.55
2023-03-10T00:08:52.669Z,20.15
2023-03-10T00:11:20.260Z,19.40
2023-03-10T00:13:48.000Z,17.75
2023-03-10T00:16:29.041Z,13.60
2023-03-10T00:18:57.450Z,7.60
2023-03-10T00:21:27.753Z,11.07
2023-03-10T00:23:55.466Z,9.80
2023-03-10T00:26:25.012Z,16.02
2023-03-10T00:28:52.362Z,16.42
2023-03-10T00:31:22.509Z,5.75
2023-03-10T00:33:49.992Z,13.38
2023-03-10T00:36:22.119Z,11.98
2023-03-10T00:38:51.000Z,17.63
2023-03-10T00:41:21.684Z,12.40
2023-03-10T00:43:49.826Z,20.30
2023-03-10T00:46:17.490Z,15.38
2023-03-10T00:48:45.691Z,23.23
2023-03-10T00:51:12.967Z,14.73
2023-03-10T00:53:41.455Z,11.75
2023-03-10T00:56:18.845Z,16.63
2023-03-10T00:58:47.578Z,8.35
2023-03-10T01:01:29.816Z,11.23
2023-03-10T01:04:01.785Z,12.30
2023-03-10T01:06:29.044Z,11.48
2023-03-10T01:08:57.682Z,9.88
2023-03-10T01:11:28.133Z,7.45
2023-03-10T01:14:01.953Z,11.55
2023-03-10T01:16:29.986Z,10.23
2023-03-10T01:18:58.461Z,10.10
2023-03-10T01:21:29.120Z,10.50
2023-03-10T01:23:56.780Z,12.02
2023-03-10T01:26:24.171Z,6.50
2023-03-10T01:28:52.277Z,8.13
2023-03-10T01:31:19.780Z,10.80
2023-03-10T01:33:47.558Z,11.65
2023-03-10T01:36:18.105Z,11.80
2023-03-10T01:38:47.776Z,16.45
2023-03-10T01:41:15.847Z,19.92
2023-03-10T01:43:45.291Z,9.98
2023-03-10T01:46:36.785Z,12.90
2023-03-10T01:52:07.565Z,9.25
2023-03-10T01:55:08.383Z,11.70
2023-03-10T01:58:00.461Z,7.10
2023-03-10T02:00:29.556Z,10.63
2023-03-10T02:03:16.520Z,13.00
2023-03-10T02:06:04.910Z,13.85
2023-03-10T02:08:44.282Z,19.83
2023-03-10T02:11:14.955Z,13.90
2023-03-10T02:13:43.285Z,9.75
2023-03-10T02:16:11.395Z,11.45
2023-03-10T02:18:40.164Z,9.45
2023-03-10T02:21:28.528Z,9.40
2023-03-10T02:24:26.385Z,5.22
2023-03-10T02:27:01.751Z,10.30
2023-03-10T02:29:42.674Z,13.93
2023-03-10T02:32:14.601Z,10.70
2023-03-10T02:34:41.852Z,12.40
2023-03-10T02:37:19.635Z,16.95
2023-03-10T02:39:47.638Z,13.98
2023-03-10T02:42:15.529Z,14.20
2023-03-10T02:44:43.335Z,8.60
2023-03-10T02:47:13.122Z,15.57
2023-03-10T02:49:41.117Z,12.02
2023-03-10T02:52:18.073Z,13.60
2023-03-10T02:54:45.097Z,13.27
2023-03-10T02:57:12.429Z,19.27
2023-03-10T02:59:40.123Z,11.68
2023-03-10T03:02:10.588Z,13.95
2023-03-10T03:04:39.040Z,11.70
2023-03-10T03:07:06.470Z,13.45
2023-03-10T03:09:33.766Z,188.60
2023-03-10T03:12:01.613Z,19.90
2023-03-10T03:14:29.313Z,19.75
2023-03-10T03:16:56.859Z,16.23
2023-03-10T03:19:24.027Z,17.85
2023-03-10T03:21:52.129Z,17.20
2023-03-10T03:24:21.283Z,14.20
2023-03-10T03:26:49.426Z,10.55
2023-03-10T03:29:20.022Z,14.50
2023-03-10T03:31:47.418Z,19.88
2023-03-10T03:34:22.834Z,9.95
2023-03-10T03:36:55.976Z,13.00
2023-03-10T03:39:29.053Z,9.73
2023-03-10T03:42:00.275Z,10.05
2023-03-10T03:44:32.484Z,13.88
2023-03-10T03:47:00.961Z,15.80
2023-03-10T03:49:29.545Z,13.80
2023-03-10T03:51:57.307Z,7.72
2023-03-10T03:54:24.710Z,12.23
2023-03-10T03:56:52.317Z,13.35
2023-03-10T03:59:19.888Z,12.07
2023-03-10T04:01:47.509Z,12.57
2023-03-10T04:04:15.108Z,11.13
2023-03-10T04:06:42.893Z,16.80
2023-03-10T04:09:11.124Z,19.73
2023-03-10T04:11:39.479Z,17.65
2023-03-10T04:14:06.834Z,15.45
2023-03-10T04:16:34.552Z,20.05
2023-03-10T04:19:03.464Z,10.13
2023-03-10T04:21:30.996Z,13.32
2023-03-10T04:23:59.363Z,16.88
2023-03-10T04:26:30.315Z,19.77
2023-03-10T04:28:58.619Z,18.92
2023-03-10T04:31:29.038Z,10.23
2023-03-10T04:33:58.524Z,16.27
2023-03-10T04:36:26.044Z,11.77
2023-03-10T04:38:56.821Z,11.90
2023-03-10T04:41:29.064Z,13.57
2023-03-10T04:43:56.153Z,18.98
2023-03-10T04:46:23.795Z,17.77
2023-03-10T04:48:51.917Z,28.35
2023-03-10T04:51:20.139Z,16.40
2023-03-10T04:53:50.833Z,23.20
2023-03-10T04:56:19.109Z,23.73
2023-03-10T04:58:47.077Z,25.67
2023-03-10T05:01:16.104Z,24.98
2023-03-10T05:03:47.816Z,29.52
2023-03-10T05:06:18.786Z,23.48
2023-03-10T05:08:51.471Z,34.85
2023-03-10T05:11:21.385Z,29.98
2023-03-10T05:13:48.470Z,28.08
2023-03-10T05:16:20.784Z,37.72
2023-03-10T05:18:49.268Z,29.55
2023-03-10T05:21:22.108Z,22.58
2023-03-10T05:23:50.368Z,28.20
2023-03-10T05:26:19.445Z,36.17
2023-03-10T05:28:47.168Z,43.95
2023-03-10T05:31:26.202Z,21.90
2023-03-10T05:33:58.769Z,27.45
2023-03-10T05:36:26.622Z,16.42
2023-03-10T05:38:54.417Z,22.60
2023-03-10T05:41:22.434Z,17.83
2023-03-10T05:43:53.774Z,20.50
2023-03-10T05:46:21.972Z,17.38
2023-03-10T05:48:54.241Z,10.40
2023-03-10T05:51:22.019Z,15.40
2023-03-10T05:53:49.208Z,14.90
2023-03-10T05:56:24.789Z,14.75
2023-03-10T05:58:55.309Z,17.58
2023-03-10T06:01:29.004Z,15.27
2023-03-10T06:03:56.684Z,14.90
2023-03-10T06:06:24.114Z,21.45
2023-03-10T06:08:51.188Z,12.63
2023-03-10T06:11:18.692Z,14.73
2023-03-10T06:13:45.853Z,10.98
2023-03-10T06:16:13.754Z,14.93
2023-03-10T06:18:41.018Z,14.98
2023-03-10T06:21:11.604Z,14.40
2023-03-10T06:23:38.960Z,12.63
2023-03-10T06:26:08.864Z,17.38
2023-03-10T06:28:38.634Z,13.85
2023-03-10T06:31:08.993Z,17.58
2023-03-10T06:33:36.137Z,11.95
2023-03-10T06:36:06.164Z,14.80
2023-03-10T06:38:33.343Z,15.32
2023-03-10T06:41:00.692Z,18.42
2023-03-10T06:43:27.878Z,15.32
2023-03-10T06:45:55.277Z,18.63
2023-03-10T06:48:22.460Z,13.55
2023-03-10T06:50:51.093Z,19.63
2023-03-10T06:53:20.133Z,16.85
2023-03-10T06:56:01.166Z,23.70
2023-03-10T06:58:29.681Z,21.40
2023-03-10T07:00:59.024Z,22.27
2023-03-10T07:03:29.034Z,41.45
2023-03-10T07:06:00.810Z,15.93
2023-03-10T07:08:29.132Z,21.00
2023-03-10T07:10:57.354Z,25.00
2023-03-10T07:13:24.696Z,26.00
2023-03-10T07:15:52.133Z,17.10
2023-03-10T07:18:19.226Z,21.95
2023-03-10T07:20:47.954Z,25.70
2023-03-10T07:23:17.822Z,33.65
2023-03-10T07:25:51.029Z,33.50
2023-03-10T07:28:18.096Z,24.48
2023-03-10T07:30:45.592Z,41.90
2023-03-10T07:33:12.722Z,29.48
2023-03-10T07:35:44.801Z,21.25
2023-03-10T07:38:11.976Z,26.80
2023-03-10T07:40:40.586Z,16.70
2023-03-10T07:43:07.661Z,38.47
2023-03-10T07:45:35.640Z,16.67
2023-03-10T07:48:02.849Z,17.85
2023-03-10T07:50:30.261Z,15.48
2023-03-10T07:52:57.256Z,18.25
2023-03-10T07:55:24.582Z,15.85
2023-03-10T07:57:51.617Z,20.90
2023-03-10T08:00:19.154Z,19.50
2023-03-10T08:02:46.365Z,17.63
2023-03-10T08:05:14.947Z,19.50
2023-03-10T08:07:42.193Z,20.85
2023-03-10T08:10:10.987Z,13.00
2023-03-10T08:12:38.333Z,24.98
2023-03-10T08:15:06.707Z,17.38
2023-03-10T08:17:33.799Z,18.55
2023-03-10T08:20:01.530Z,13.32
2023-03-10T08:22:28.994Z,26.27
2023-03-10T08:24:59.643Z,16.35
2023-03-10T08:27:29.006Z,11.80
2023-03-10T08:29:56.985Z,19.40
2023-03-10T08:32:24.242Z,18.02
2023-03-10T08:34:51.894Z,17.27
2023-03-10T08:37:18.993Z,23.10
2023-03-10T08:39:46.790Z,18.80
2023-03-10T08:42:14.042Z,25.52
2023-03-10T08:44:41.877Z,20.33
2023-03-10T08:47:09.426Z,15.43
2023-03-10T08:49:37.198Z,21.73
2023-03-10T08:52:04.535Z,49.65
2023-03-10T08:54:32.702Z,26.73
2023-03-10T08:57:00.369Z,64.25
2023-03-10T08:59:27.726Z,22.95
2023-03-10T09:01:54.885Z,24.58
2023-03-10T09:04:22.552Z,24.15
2023-03-10T09:06:49.539Z,22.83
2023-03-10T09:09:17.463Z,27.63
2023-03-10T09:11:45.280Z,11.27
2023-03-10T09:14:15.033Z,12.68
2023-03-10T09:16:43.946Z,16.85
2023-03-10T09:19:11.369Z,15.43
2023-03-10T09:21:39.092Z,15.65
2023-03-10T09:24:06.534Z,34.13
2023-03-10T09:26:35.555Z,19.23
2023-03-10T09:29:04.500Z,13.85
2023-03-10T09:31:35.177Z,34.00
2023-03-10T09:34:05.740Z,16.80
2023-03-10T09:36:33.589Z,26.33
2023-03-10T09:39:03.813Z,15.05
2023-03-10T09:41:39.543Z,18.10
2023-03-10T09:44:49.335Z,59.95
2023-03-10T09:47:25.168Z,20.95
2023-03-10T09:50:08.343Z,23.60
2023-03-10T09:52:54.414Z,23.52
2023-03-10T09:55:25.729Z,25.80
2023-03-10T09:57:55.755Z,44.42
2023-03-10T10:00:40.719Z,54.97
2023-03-10T10:03:51.515Z,37.00
2023-03-10T10:06:42.942Z,32.10
2023-03-10T10:09:42.346Z,51.08
2023-03-10T10:12:19.167Z,43.03
2023-03-10T10:14:56.531Z,18.52
2023-03-10T10:17:55.084Z,14.73
2023-03-10T10:20:43.773Z,39.08
2023-03-10T10:23:22.829Z,27.33
2023-03-10T10:25:50.578Z,44.83
2023-03-10T10:28:32.885Z,35.63
2023-03-10T10:31:22.483Z,27.55
2023-03-10T10:33:54.543Z,40.53
2023-03-10T10:36:24.536Z,19.83
2023-03-10T10:38:56.785Z,16.38
2023-03-10T10:41:32.014Z,41.55
2023-03-10T10:44:14.416Z,29.55
2023-03-10T10:46:57.676Z,33.40
2023-03-10T10:49:31.630Z,30.90
2023-03-10T10:52:01.420Z,22.17
2023-03-10T10:54:41.159Z,26.17
2023-03-10T10:57:20.084Z,36.55
2023-03-10T10:59:47.820Z,45.97
2023-03-10T11:02:35.502Z,28.05
2023-03-10T11:05:13.644Z,40.22
2023-03-10T11:07:40.816Z,20.83
2023-03-10T11:10:19.419Z,37.55
2023-03-10T11:12:46.461Z,21.20
2023-03-10T11:15:30.011Z,26.30
2023-03-10T11:18:17.443Z,21.90
2023-03-10T11:20:50.751Z,18.90
2023-03-10T11:23:27.005Z,64.72
2023-03-10T11:26:31.682Z,31.30
2023-03-10T11:29:20.791Z,29.85
2023-03-10T11:32:18.539Z,53.20
2023-03-10T11:34:51.748Z,41.35
2023-03-10T11:37:42.625Z,35.15
2023-03-10T11:40:48.532Z,55.28
2023-03-10T11:43:33.593Z,44.30
2023-03-10T11:46:13.251Z,29.27
2023-03-10T11:49:06.297Z,64.68
2023-03-10T11:51:44.752Z,42.47
2023-03-10T11:54:36.211Z,21.83
2023-03-10T11:57:26.898Z,35.83
2023-03-10T12:00:00.169Z,33.67
2023-03-10T12:02:33.689Z,32.72
2023-03-10T12:05:14.148Z,36.08
2023-03-10T12:07:47.285Z,151.80
2023-03-10T12:10:21.332Z,47.25
2023-03-10T12:12:50.454Z,40.40
2023-03-10T12:15:29.412Z,90.53
2023-03-10T12:17:57.288Z,61.92
2023-03-10T12:20:31.375Z,45.13
2023-03-10T12:23:26.848Z,96.28
2023-03-10T12:25:54.721Z,49.08
2023-03-10T12:28:32.600Z,98.72
2023-03-10T12:31:15.305Z,59.20
2023-03-10T12:33:45.787Z,44.00
2023-03-10T12:36:15.011Z,42.95
2023-03-10T12:38:58.101Z,90.07
2023-03-10T12:41:28.244Z,52.10
2023-03-10T12:44:01.188Z,92.03
2023-03-10T12:47:14.049Z,160.00
2023-03-10T12:49:41.131Z,79.00
2023-03-10T12:52:29.558Z,110.15
2023-03-10T12:55:25.657Z,60.95
2023-03-10T12:57:54.045Z,75.82
2023-03-10T13:00:50.571Z,76.28
2023-03-10T13:03:27.325Z,57.70
2023-03-10T13:06:11.262Z,98.57
2023-03-10T13:08:54.964Z,51.97
2023-03-10T13:11:31.130Z,78.30
2023-03-10T13:14:33.025Z,40.20
2023-03-10T13:17:01.393Z,37.83
2023-03-10T13:19:34.545Z,40.83
2023-03-10T13:22:02.486Z,44.13
2023-03-10T13:24:36.165Z,50.80
2023-03-10T13:27:06.236Z,76.68
2023-03-10T13:29:35.303Z,109.10
2023-03-10T13:32:07.156Z,96.88
2023-03-10T13:34:36.805Z,76.68
2023-03-10T13:37:10.192Z,41.88
2023-03-10T13:39:39.171Z,43.90
2023-03-10T13:42:42.755Z,71.95
2023-03-10T13:45:22.974Z,49.80
2023-03-10T13:47:52.653Z,46.53
2023-03-10T13:50:21.272Z,66.82
2023-03-10T13:52:54.581Z,72.30
2023-03-10T13:55:21.972Z,82.68
2023-03-10T13:57:50.300Z,88.80
2023-03-10T14:00:21.762Z,97.00
2023-03-10T14:02:52.954Z,52.33
2023-03-10T14:05:46.014Z,46.10
2023-03-10T14:08:28.725Z,45.85
2023-03-10T14:11:54.940Z,282.85
2023-03-10T14:14:31.192Z,220.60
2023-03-10T14:17:02.812Z,119.13
2023-03-10T14:19:42.758Z,160.88
2023-03-10T14:22:29.988Z,147.18
2023-03-10T14:24:59.035Z,103.72
2023-03-10T14:27:28.429Z,52.63
2023-03-10T14:30:00.501Z,185.43
2023-03-10T14:32:28.024Z,133.43
2023-03-10T14:34:55.055Z,50.05
2023-03-10T14:37:23.911Z,49.25
2023-03-10T14:39:50.951Z,46.30
2023-03-10T14:42:26.981Z,59.13
2023-03-10T14:44:54.128Z,59.80
2023-03-10T14:47:22.923Z,52.80
2023-03-10T14:49:50.301Z,315.52
2023-03-10T14:52:18.708Z,134.00
2023-03-10T14:54:45.903Z,62.53
2023-03-10T14:57:20.260Z,87.15
2023-03-10T14:59:47.538Z,118.00
2023-03-10T15:02:24.102Z,407.58
2023-03-10T15:04:51.504Z,71.38
2023-03-10T15:07:19.140Z,49.55
2023-03-10T15:09:46.548Z,54.20
2023-03-10T15:12:17.975Z,92.25
2023-03-10T15:14:52.489Z,69.53
2023-03-10T15:17:20.685Z,68.68
2023-03-10T15:19:47.909Z,74.63
2023-03-10T15:22:15.292Z,69.75
2023-03-10T15:24:42.741Z,275.77
2023-03-10T15:27:12.302Z,206.45
2023-03-10T15:29:39.376Z,277.05
2023-03-10T15:32:07.016Z,325.85
2023-03-10T15:34:34.172Z,90.85
2023-03-10T15:37:01.637Z,125.50
2023-03-10T15:39:31.896Z,165.93
2023-03-10T15:41:59.961Z,177.18
2023-03-10T15:44:27.144Z,161.38
2023-03-10T15:46:55.905Z,254.57
2023-03-10T15:49:23.353Z,119.30
2023-03-10T15:51:50.848Z,100.20
2023-03-10T15:54:18.005Z,88.90
2023-03-10T15:56:45.576Z,255.52
2023-03-10T15:59:12.843Z,117.28
2023-03-10T16:01:40.524Z,82.05
2023-03-10T16:04:10.954Z,163.55
2023-03-10T16:06:38.599Z,148.82
2023-03-10T16:09:08.663Z,106.78
2023-03-10T16:11:36.524Z,117.55
2023-03-10T16:14:07.082Z,288.98
2023-03-10T16:16:34.443Z,171.45
2023-03-10T16:19:02.672Z,215.15
2023-03-10T16:21:30.552Z,146.50
2023-03-10T16:23:57.701Z,122.82
2023-03-10T16:26:34.333Z,226.68
2023-03-10T16:29:01.581Z,339.10
2023-03-10T16:31:32.222Z,174.85
2023-03-10T16:33:59.272Z,111.65
2023-03-10T16:36:30.879Z,117.50
2023-03-10T16:38:58.154Z,135.55
2023-03-10T16:41:27.830Z,173.68
2023-03-10T16:43:55.632Z,194.95
2023-03-10T16:46:25.778Z,277.33
2023-03-10T16:48:55.012Z,196.38
2023-03-10T16:51:27.064Z,573.65
2023-03-10T16:54:01.032Z,334.98
2023-03-10T16:56:35.328Z,191.90
2023-03-10T16:59:02.711Z,349.02
2023-03-10T17:01:30.381Z,110.45
2023-03-10T17:03:58.188Z,611.60
2023-03-10T17:06:31.689Z,393.40
2023-03-10T17:09:00.332Z,391.30
2023-03-10T17:11:30.890Z,579.00
2023-03-10T17:14:01.065Z,383.60
2023-03-10T17:16:30.429Z,401.83
2023-03-10T17:19:00.416Z,433.25
2023-03-10T17:21:32.745Z,797.10
2023-03-10T17:24:00.195Z,666.22
2023-03-10T17:26:27.758Z,678.10
2023-03-10T17:28:55.325Z,245.95
2023-03-10T17:31:28.708Z,175.73
2023-03-10T17:34:01.874Z,192.27
2023-03-10T17:36:32.522Z,202.40
2023-03-10T17:39:01.488Z,496.70
2023-03-10T17:41:30.232Z,420.33
2023-03-10T17:44:00.009Z,329.60
2023-03-10T17:46:29.923Z,289.67
2023-03-10T17:48:58.387Z,217.60
2023-03-10T17:51:31.451Z,590.42
2023-03-10T17:54:01.231Z,1035.70
2023-03-10T17:56:30.041Z,569.63
2023-03-10T17:58:58.149Z,437.75
2023-03-10T18:01:28.160Z,317.48
2023-03-10T18:03:56.734Z,440.85
2023-03-10T18:06:30.740Z,532.47
2023-03-10T18:09:00.116Z,243.93
2023-03-10T18:11:28.461Z,145.43
2023-03-10T18:13:55.693Z,164.05
2023-03-10T18:16:35.322Z,233.27
2023-03-10T18:19:08.808Z,138.05
2023-03-10T18:21:41.367Z,279.60
2023-03-10T18:24:11.638Z,438.55
2023-03-10T18:26:43.285Z,194.93
2023-03-10T18:29:12.124Z,229.73
2023-03-10T18:31:40.035Z,117.35
2023-03-10T18:34:07.432Z,250.45
2023-03-10T18:36:36.238Z,274.35
2023-03-10T18:39:04.991Z,259.73
2023-03-10T18:41:32.914Z,269.02
2023-03-10T18:44:00.678Z,261.45
2023-03-10T18:46:28.725Z,335.63
2023-03-10T18:48:58.198Z,534.90
2023-03-10T18:51:27.304Z,310.55
2023-03-10T18:53:55.372Z,693.83
2023-03-10T18:56:25.987Z,358.27
2023-03-10T18:58:54.041Z,1275.18
2023-03-10T19:01:22.227Z,441.40
2023-03-10T19:03:49.788Z,601.90
2023-03-10T19:06:17.572Z,344.42
2023-03-10T19:08:45.105Z,340.02
2023-03-10T19:11:13.045Z,492.17
2023-03-10T19:13:43.615Z,619.38
2023-03-10T19:16:11.754Z,393.95
2023-03-10T19:18:39.845Z,145.73
2023-03-10T19:21:07.400Z,384.92
2023-03-10T19:23:35.194Z,340.77
2023-03-10T19:26:03.375Z,440.75
2023-03-10T19:28:31.330Z,325.95
2023-03-10T19:31:02.009Z,160.00
2023-03-10T19:33:29.087Z,107.63
2023-03-10T19:36:09.003Z,99.72
2023-03-10T19:38:38.648Z,132.75
2023-03-10T19:41:18.990Z,318.38
2023-03-10T19:43:49.069Z,206.85
2023-03-10T19:46:17.959Z,213.45
2023-03-10T19:48:45.538Z,299.50
2023-03-10T19:51:28.637Z,268.85
2023-03-10T19:53:57.674Z,296.58
2023-03-10T19:56:26.495Z,233.32
2023-03-10T19:58:54.489Z,318.35
2023-03-10T20:01:24.695Z,263.92
2023-03-10T20:03:56.699Z,211.18
2023-03-10T20:06:25.206Z,204.63
2023-03-10T20:08:52.351Z,173.45
2023-03-10T20:11:20.609Z,164.88
2023-03-10T20:13:52.945Z,148.93
2023-03-10T20:16:23.999Z,164.27
2023-03-10T20:18:51.323Z,224.32
2023-03-10T20:21:18.679Z,229.30
2023-03-10T20:23:48.602Z,321.75
2023-03-10T20:26:17.083Z,278.63
2023-03-10T20:28:45.072Z,320.85
2023-03-10T20:31:24.101Z,367.83
2023-03-10T20:33:52.453Z,343.67
2023-03-10T20:36:20.365Z,381.20
2023-03-10T20:38:49.146Z,389.58
2023-03-10T20:41:18.349Z,321.45
2023-03-10T20:43:45.499Z,197.93
2023-03-10T20:46:13.295Z,161.38
2023-03-10T20:48:43.718Z,155.73
2023-03-10T20:51:14.892Z,185.10
2023-03-10T20:53:42.506Z,161.20
2023-03-10T20:56:10.851Z,152.48
2023-03-10T20:58:38.334Z,158.98
2023-03-10T21:01:06.052Z,139.48
2023-03-10T21:03:33.120Z,180.90
2023-03-10T21:06:00.457Z,145.82
2023-03-10T21:08:30.392Z,137.60
2023-03-10T21:10:57.734Z,138.88
2023-03-10T21:13:27.212Z,128.13
2023-03-10T21:15:54.727Z,125.70
2023-03-10T21:18:21.922Z,130.25
2023-03-10T21:20:55.285Z,118.78
2023-03-10T21:23:22.472Z,120.63
2023-03-10T21:25:50.128Z,161.40
2023-03-10T21:28:23.230Z,201.25
2023-03-10T21:30:50.641Z,166.55
2023-03-10T21:33:17.800Z,136.70
2023-03-10T21:35:45.335Z,112.40
2023-03-10T21:38:12.691Z,107.35
2023-03-10T21:40:40.773Z,147.48
2023-03-10T21:43:08.074Z,115.80
2023-03-10T21:45:37.569Z,116.20
2023-03-10T21:48:04.977Z,125.88
2023-03-10T21:50:32.667Z,90.47
2023-03-10T21:53:00.840Z,106.15
2023-03-10T21:55:29.474Z,119.40
2023-03-10T21:57:56.688Z,142.23
2023-03-10T22:00:26.522Z,100.45
2023-03-10T22:02:54.434Z,192.38
2023-03-10T22:05:22.158Z,122.18
2023-03-10T22:07:50.151Z,132.80
2023-03-10T22:10:17.938Z,122.15
2023-03-10T22:12:45.502Z,137.75
2023-03-10T22:15:17.210Z,151.27
2023-03-10T22:17:44.584Z,238.85
2023-03-10T22:20:18.481Z,316.85
2023-03-10T22:22:45.810Z,233.13
2023-03-10T22:25:14.664Z,130.25
2023-03-10T22:27:42.723Z,156.75
2023-03-10T22:30:10.876Z,238.10
2023-03-10T22:32:38.156Z,173.70
2023-03-10T22:35:07.174Z,159.57
2023-03-10T22:37:34.193Z,157.18
2023-03-10T22:40:01.698Z,148.85
2023-03-10T22:42:28.884Z,200.93
2023-03-10T22:44:56.433Z,173.50
2023-03-10T22:47:24.796Z,130.95
2023-03-10T22:49:52.342Z,151.40
2023-03-10T22:52:19.431Z,149.50
2023-03-10T22:54:48.013Z,216.50
2023-03-10T22:57:15.351Z,147.70
2023-03-10T22:59:42.864Z,121.00
2023-03-10T23:02:10.816Z,123.68
2023-03-10T23:04:39.092Z,83.90
2023-03-10T23:07:06.286Z,77.85
2023-03-10T23:09:36.479Z,89.22
2023-03-10T23:12:03.696Z,71.03
2023-03-10T23:14:31.332Z,87.38
2023-03-10T23:16:58.417Z,55.10
2023-03-10T23:19:26.867Z,80.53
2023-03-10T23:21:54.050Z,90.82
2023-03-10T23:24:21.287Z,99.20
2023-03-10T23:26:48.372Z,91.05
2023-03-10T23:29:17.847Z,87.47
2023-03-10T23:31:44.971Z,109.63
2023-03-10T23:34:12.360Z,90.57
2023-03-10T23:36:39.352Z,65.85
2023-03-10T23:39:07.512Z,67.40
2023-03-10T23:41:34.489Z,73.40
2023-03-10T23:44:01.906Z,63.75
2023-03-10T23:46:29.025Z,75.15
2023-03-10T23:48:56.342Z,77.20
2023-03-10T23:51:23.324Z,72.00
2023-03-10T23:53:50.763Z,74.75
2023-03-10T23:56:17.853Z,68.70
2023-03-10T23:58:45.396Z,74.40
